createdAt,value
2023-01-22T00:01:12.707Z,1.97
2023-01-22T00:03:40.387Z,2.07
2023-01-22T00:06:08.008Z,2.63
2023-01-22T00:08:35.111Z,2.43
2023-01-22T00:11:02.616Z,1.67
2023-01-22T00:13:29.784Z,1.83
2023-01-22T00:16:00.212Z,2.20
2023-01-22T00:18:27.681Z,2.63
2023-01-22T00:20:55.273Z,1.60
2023-01-22T00:23:22.489Z,2.77
2023-01-22T00:25:49.549Z,2.80
2023-01-22T00:28:16.996Z,2.60
2023-01-22T00:30:44.202Z,3.07
2023-01-22T00:33:11.247Z,1.83
2023-01-22T00:35:38.378Z,3.27
2023-01-22T00:38:06.426Z,2.90
2023-01-22T00:40:33.485Z,2.90
2023-01-22T00:43:00.535Z,2.27
2023-01-22T00:45:27.641Z,1.70
2023-01-22T00:47:54.679Z,1.97
2023-01-22T00:50:21.767Z,1.77
2023-01-22T00:52:48.921Z,2.00
2023-01-22T00:55:16.037Z,2.63
2023-01-22T00:57:43.105Z,3.03
2023-01-22T01:00:10.558Z,3.10
2023-01-22T01:02:57.589Z,2.60
2023-01-22T01:05:24.755Z,2.23
2023-01-22T01:07:51.923Z,3.33
2023-01-22T01:10:19.648Z,3.53
2023-01-22T01:12:47.006Z,1.57
2023-01-22T01:15:14.101Z,2.17
2023-01-22T01:17:41.139Z,2.93
2023-01-22T01:20:08.574Z,3.10
2023-01-22T01:22:35.612Z,1.80
2023-01-22T01:25:02.873Z,3.33
2023-01-22T01:27:31.615Z,2.17
2023-01-22T01:29:59.085Z,4.17
2023-01-22T01:32:26.338Z,2.40
2023-01-22T01:34:53.415Z,2.30
2023-01-22T01:37:20.491Z,3.37
2023-01-22T01:39:51.794Z,2.47
2023-01-22T01:42:24.162Z,2.63
2023-01-22T01:45:09.718Z,2.50
2023-01-22T01:47:37.375Z,3.33
2023-01-22T01:50:04.630Z,3.53
2023-01-22T01:52:31.710Z,4.70
2023-01-22T01:54:58.934Z,2.27
2023-01-22T01:57:28.235Z,2.10
2023-01-22T01:59:55.819Z,3.47
2023-01-22T02:02:23.116Z,3.40
2023-01-22T02:04:51.516Z,2.60
2023-01-22T02:07:18.960Z,4.50
2023-01-22T02:09:46.265Z,3.17
2023-01-22T02:12:13.376Z,2.67
2023-01-22T02:14:42.057Z,3.60
2023-01-22T02:17:11.645Z,3.60
2023-01-22T02:19:42.037Z,2.83
2023-01-22T02:22:12.674Z,3.37
2023-01-22T02:24:39.721Z,3.50
2023-01-22T02:27:06.823Z,3.47
2023-01-22T02:29:33.871Z,3.57
2023-01-22T02:32:00.978Z,2.93
2023-01-22T02:34:28.089Z,3.50
2023-01-22T02:36:55.213Z,4.30
2023-01-22T02:39:22.314Z,3.67
2023-01-22T02:41:49.557Z,3.47
2023-01-22T02:44:16.638Z,3.50
2023-01-22T02:46:43.703Z,4.87
2023-01-22T02:49:10.821Z,3.80
2023-01-22T02:51:37.882Z,2.43
2023-01-22T02:54:05.025Z,3.53
2023-01-22T02:56:33.834Z,3.00
2023-01-22T02:59:05.031Z,3.27
2023-01-22T03:01:32.229Z,2.90
2023-01-22T03:04:01.524Z,4.10
2023-01-22T03:06:29.599Z,3.27
2023-01-22T03:08:58.119Z,2.77
2023-01-22T03:11:26.522Z,2.37
2023-01-22T03:14:12.702Z,3.10
2023-01-22T03:16:58.697Z,3.13
2023-01-22T03:19:44.723Z,2.47
2023-01-22T03:22:12.013Z,2.87
2023-01-22T03:24:39.134Z,3.83
2023-01-22T03:27:06.219Z,4.63
2023-01-22T03:29:33.330Z,3.27
2023-01-22T03:32:00.501Z,3.30
2023-01-22T03:34:27.617Z,3.83
2023-01-22T03:36:54.738Z,2.80
2023-01-22T03:39:21.804Z,2.43
2023-01-22T03:41:48.884Z,4.03
2023-01-22T03:44:15.966Z,3.33
2023-01-22T03:46:43.079Z,4.10
2023-01-22T03:49:10.875Z,3.37
2023-01-22T03:51:38.229Z,3.40
2023-01-22T03:54:05.406Z,3.73
2023-01-22T03:56:32.481Z,3.80
2023-01-22T03:58:59.743Z,4.60
2023-01-22T04:01:27.737Z,3.80
2023-01-22T04:03:55.130Z,3.97
2023-01-22T04:06:23.431Z,4.83
2023-01-22T04:08:51.486Z,4.67
2023-01-22T04:11:18.941Z,2.73
2023-01-22T04:13:46.356Z,5.40
2023-01-22T04:16:14.442Z,4.90
2023-01-22T04:18:42.075Z,4.40
2023-01-22T04:21:09.416Z,4.57
2023-01-22T04:23:36.504Z,3.30
2023-01-22T04:26:03.657Z,4.03
2023-01-22T04:28:30.721Z,4.43
2023-01-22T04:30:57.903Z,4.57
2023-01-22T04:33:25.075Z,4.70
2023-01-22T04:35:53.461Z,6.80
2023-01-22T04:38:20.621Z,4.57
2023-01-22T04:40:47.778Z,4.70
2023-01-22T04:43:14.878Z,5.20
2023-01-22T04:45:41.963Z,5.93
2023-01-22T04:48:09.387Z,6.00
2023-01-22T04:50:36.506Z,4.50
2023-01-22T04:53:05.013Z,5.07
2023-01-22T04:55:32.080Z,6.47
2023-01-22T04:57:59.899Z,6.10
2023-01-22T05:00:27.752Z,4.57
2023-01-22T05:02:58.706Z,5.57
2023-01-22T05:05:26.379Z,6.03
2023-01-22T05:07:53.480Z,6.80
2023-01-22T05:10:20.985Z,5.87
2023-01-22T05:12:48.926Z,7.53
2023-01-22T05:15:24.016Z,5.67
2023-01-22T05:17:52.284Z,6.90
2023-01-22T05:20:19.668Z,5.50
2023-01-22T05:22:46.935Z,4.47
2023-01-22T05:25:14.049Z,5.00
2023-01-22T05:27:41.340Z,5.97
2023-01-22T05:30:08.707Z,4.83
2023-01-22T05:32:35.798Z,4.90
2023-01-22T05:35:03.186Z,6.20
2023-01-22T05:37:31.505Z,4.60
2023-01-22T05:39:58.649Z,5.27
2023-01-22T05:42:25.696Z,3.87
2023-01-22T05:44:52.791Z,6.03
2023-01-22T05:47:19.838Z,6.73
2023-01-22T05:49:46.881Z,5.67
2023-01-22T05:52:13.943Z,5.93
2023-01-22T05:54:41.024Z,5.43
2023-01-22T05:57:08.209Z,6.67
2023-01-22T05:59:35.325Z,5.50
2023-01-22T06:02:02.409Z,6.73
2023-01-22T06:04:29.723Z,9.30
2023-01-22T06:06:56.833Z,6.90
2023-01-22T06:09:24.290Z,7.03
2023-01-22T06:11:51.525Z,7.03
2023-01-22T06:14:18.642Z,6.87
2023-01-22T06:16:45.722Z,4.67
2023-01-22T06:19:12.925Z,6.47
2023-01-22T06:21:40.080Z,6.73
2023-01-22T06:24:07.403Z,7.17
2023-01-22T06:26:34.545Z,6.27
2023-01-22T06:29:01.605Z,6.77
2023-01-22T06:31:28.775Z,7.63
2023-01-22T06:33:55.956Z,8.27
2023-01-22T06:36:23.137Z,8.07
2023-01-22T06:38:50.221Z,6.10
2023-01-22T06:41:17.344Z,5.90
2023-01-22T06:43:44.450Z,6.27
2023-01-22T06:46:11.509Z,6.30
2023-01-22T06:48:38.654Z,6.70
2023-01-22T06:51:05.861Z,5.97
2023-01-22T06:53:33.077Z,7.43
2023-01-22T06:56:00.484Z,7.07
2023-01-22T06:58:27.652Z,9.93
2023-01-22T07:00:54.697Z,5.83
2023-01-22T07:03:21.847Z,6.13
2023-01-22T07:05:55.992Z,6.73
2023-01-22T07:08:23.064Z,6.13
2023-01-22T07:10:50.295Z,6.43
2023-01-22T07:13:17.409Z,6.07
2023-01-22T07:15:44.503Z,7.23
2023-01-22T07:18:14.366Z,6.67
2023-01-22T07:20:42.385Z,7.30
2023-01-22T07:23:09.799Z,5.30
2023-01-22T07:25:36.894Z,5.80
2023-01-22T07:28:04.636Z,5.97
2023-01-22T07:30:32.017Z,5.50
2023-01-22T07:33:00.286Z,5.30
2023-01-22T07:35:27.642Z,4.63
2023-01-22T07:37:57.613Z,6.20
2023-01-22T07:40:25.094Z,5.50
2023-01-22T07:42:52.335Z,6.83
2023-01-22T07:45:19.700Z,5.00
2023-01-22T07:47:54.481Z,4.20
2023-01-22T07:50:22.160Z,4.40
2023-01-22T07:52:49.269Z,5.70
2023-01-22T07:55:16.610Z,4.50
2023-01-22T07:57:43.675Z,5.53
2023-01-22T08:00:11.283Z,3.97
2023-01-22T08:02:38.843Z,3.47
2023-01-22T08:05:06.786Z,4.80
2023-01-22T08:10:09.646Z,5.97
2023-01-22T08:12:38.454Z,4.00
2023-01-22T08:15:05.756Z,4.87
2023-01-22T08:17:32.816Z,3.47
2023-01-22T08:19:59.893Z,3.97
2023-01-22T08:22:26.962Z,5.53
2023-01-22T08:24:54.161Z,3.67
2023-01-22T08:27:21.789Z,5.27
2023-01-22T08:29:49.928Z,6.00
2023-01-22T08:32:17.886Z,5.13
2023-01-22T08:34:44.965Z,4.57
2023-01-22T08:37:12.042Z,4.37
2023-01-22T08:39:39.101Z,6.17
2023-01-22T08:42:06.224Z,7.10
2023-01-22T08:44:33.352Z,5.30
2023-01-22T08:47:00.407Z,4.63
2023-01-22T08:49:27.492Z,5.63
2023-01-22T08:51:54.654Z,5.17
2023-01-22T08:54:21.759Z,6.57
2023-01-22T08:56:48.989Z,5.53
2023-01-22T08:59:16.768Z,5.80
2023-01-22T09:01:43.905Z,9.60
2023-01-22T09:04:11.443Z,6.67
2023-01-22T09:06:39.868Z,7.20
2023-01-22T09:09:07.855Z,6.23
2023-01-22T09:11:35.228Z,7.40
2023-01-22T09:14:02.673Z,6.67
2023-01-22T09:16:29.929Z,7.37
2023-01-22T09:18:57.019Z,8.10
2023-01-22T09:21:24.072Z,8.23
2023-01-22T09:23:51.197Z,7.27
2023-01-22T09:26:18.278Z,6.20
2023-01-22T09:28:45.376Z,7.43
2023-01-22T09:31:15.679Z,7.87
2023-01-22T09:33:42.768Z,8.60
2023-01-22T09:36:10.993Z,7.60
2023-01-22T09:38:38.444Z,8.60
2023-01-22T09:41:08.624Z,7.83
2023-01-22T09:43:38.263Z,7.90
2023-01-22T09:46:09.269Z,9.70
2023-01-22T09:48:40.161Z,7.80
2023-01-22T09:51:07.344Z,10.10
2023-01-22T09:53:34.780Z,10.70
2023-01-22T09:56:03.559Z,10.37
2023-01-22T09:58:30.872Z,9.20
2023-01-22T10:01:00.921Z,8.83
2023-01-22T10:03:28.004Z,8.97
2023-01-22T10:05:57.841Z,9.07
2023-01-22T10:08:38.129Z,10.53
2023-01-22T10:11:05.567Z,8.80
2023-01-22T10:13:34.153Z,11.37
2023-01-22T10:16:01.374Z,10.10
2023-01-22T10:18:28.465Z,9.67
2023-01-22T10:20:56.324Z,11.13
2023-01-22T10:23:25.598Z,10.83
2023-01-22T10:26:00.890Z,13.03
2023-01-22T10:28:28.305Z,13.50
2023-01-22T10:30:58.814Z,9.57
2023-01-22T10:33:26.814Z,13.37
2023-01-22T10:35:56.561Z,10.10
2023-01-22T10:38:28.292Z,15.87
2023-01-22T10:40:56.628Z,10.67
2023-01-22T10:43:31.836Z,10.30
2023-01-22T10:46:00.284Z,15.03
2023-01-22T10:48:27.646Z,13.83
2023-01-22T10:51:12.509Z,10.83
2023-01-22T10:53:45.610Z,13.90
2023-01-22T10:56:13.839Z,9.67
2023-01-22T10:58:47.068Z,9.93
2023-01-22T11:01:36.462Z,9.03
2023-01-22T11:04:21.435Z,13.30
2023-01-22T11:06:50.912Z,9.13
2023-01-22T11:09:24.800Z,11.47
2023-01-22T11:11:57.098Z,12.63
2023-01-22T11:14:26.631Z,11.57
2023-01-22T11:16:54.831Z,13.30
2023-01-22T11:19:36.535Z,15.60
2023-01-22T11:22:07.045Z,12.63
2023-01-22T11:24:34.066Z,13.37
2023-01-22T11:27:01.100Z,14.47
2023-01-22T11:29:30.960Z,12.97
2023-01-22T11:32:03.856Z,12.53
2023-01-22T11:34:30.892Z,15.13
2023-01-22T11:37:10.152Z,10.77
2023-01-22T11:39:43.007Z,12.47
2023-01-22T11:42:15.903Z,15.70
2023-01-22T11:44:55.728Z,14.50
2023-01-22T11:47:47.555Z,13.20
2023-01-22T11:50:33.467Z,12.07
2023-01-22T11:53:03.747Z,13.83
2023-01-22T11:55:39.950Z,9.77
2023-01-22T11:58:45.581Z,11.47
2023-01-22T12:01:27.964Z,12.47
2023-01-22T12:04:00.824Z,9.50
2023-01-22T12:06:41.441Z,10.93
2023-01-22T12:09:17.565Z,10.60
2023-01-22T12:12:00.345Z,9.60
2023-01-22T12:14:27.378Z,9.97
2023-01-22T12:16:57.207Z,9.67
2023-01-22T12:19:42.855Z,10.20
2023-01-22T12:22:16.057Z,10.50
2023-01-22T12:24:56.976Z,11.13
2023-01-22T12:27:27.175Z,11.87
2023-01-22T12:30:20.657Z,12.00
2023-01-22T12:32:52.976Z,11.77
2023-01-22T12:35:21.263Z,11.97
2023-01-22T12:37:58.117Z,14.13
2023-01-22T12:40:25.165Z,11.00
2023-01-22T12:42:52.197Z,11.80
2023-01-22T12:45:22.363Z,11.40
2023-01-22T12:47:55.003Z,12.30
2023-01-22T12:50:23.337Z,14.77
2023-01-22T12:53:00.727Z,13.47
2023-01-22T12:55:37.175Z,12.20
2023-01-22T12:58:05.099Z,13.53
2023-01-22T13:00:36.371Z,13.93
2023-01-22T13:03:04.982Z,15.23
2023-01-22T13:05:32.047Z,15.43
2023-01-22T13:08:22.466Z,14.20
2023-01-22T13:10:52.639Z,12.80
2023-01-22T13:13:30.957Z,12.43
2023-01-22T13:16:03.334Z,15.07
2023-01-22T13:18:31.629Z,13.33
2023-01-22T13:21:06.927Z,13.90
2023-01-22T13:23:36.566Z,10.97
2023-01-22T13:26:05.041Z,10.93
2023-01-22T13:28:32.189Z,10.17
2023-01-22T13:31:03.444Z,11.63
2023-01-22T13:33:30.924Z,10.50
2023-01-22T13:35:58.531Z,12.03
2023-01-22T13:38:30.843Z,11.90
2023-01-22T13:41:03.389Z,11.03
2023-01-22T13:43:30.676Z,9.40
2023-01-22T13:45:58.119Z,10.50
2023-01-22T13:48:27.034Z,10.23
2023-01-22T13:51:02.488Z,12.33
2023-01-22T13:53:31.578Z,9.50
2023-01-22T13:55:59.912Z,10.43
2023-01-22T13:58:38.830Z,9.43
2023-01-22T14:01:10.918Z,11.10
2023-01-22T14:03:38.444Z,11.13
2023-01-22T14:06:08.780Z,9.10
2023-01-22T14:08:46.351Z,13.47
2023-01-22T14:11:13.469Z,10.43
2023-01-22T14:13:41.590Z,9.27
2023-01-22T14:16:09.329Z,10.10
2023-01-22T14:18:36.527Z,8.93
2023-01-22T14:21:04.216Z,12.50
2023-01-22T14:23:31.307Z,8.83
2023-01-22T14:25:59.061Z,10.13
2023-01-22T14:28:29.388Z,9.60
2023-01-22T14:30:56.569Z,10.40
2023-01-22T14:33:24.981Z,11.77
2023-01-22T14:35:52.270Z,10.60
2023-01-22T14:38:19.368Z,11.13
2023-01-22T14:40:46.653Z,10.23
2023-01-22T14:43:13.826Z,10.80
2023-01-22T14:45:41.339Z,11.27
2023-01-22T14:48:08.478Z,12.40
2023-01-22T14:50:35.581Z,8.53
2023-01-22T14:53:02.668Z,10.50
2023-01-22T14:55:30.041Z,10.37
2023-01-22T14:57:57.721Z,9.17
2023-01-22T15:00:24.941Z,9.97
2023-01-22T15:02:55.751Z,10.13
2023-01-22T15:05:22.896Z,9.93
2023-01-22T15:07:49.957Z,8.53
2023-01-22T15:10:17.455Z,9.40
2023-01-22T15:12:52.782Z,10.90
2023-01-22T15:15:25.138Z,12.10
2023-01-22T15:17:52.753Z,9.53
2023-01-22T15:20:20.799Z,8.83
2023-01-22T15:22:49.614Z,10.63
2023-01-22T15:25:16.848Z,9.90
2023-01-22T15:27:44.518Z,9.37
2023-01-22T15:30:12.596Z,8.10
2023-01-22T15:32:39.784Z,8.63
2023-01-22T15:35:07.103Z,8.60
2023-01-22T15:37:34.199Z,8.13
2023-01-22T15:40:01.367Z,7.70
2023-01-22T15:42:28.443Z,8.73
2023-01-22T15:44:55.522Z,7.57
2023-01-22T15:47:22.631Z,7.43
2023-01-22T15:49:49.741Z,7.50
2023-01-22T15:52:16.855Z,8.33
2023-01-22T15:54:43.993Z,7.30
2023-01-22T15:57:11.097Z,5.30
2023-01-22T15:59:41.221Z,6.27
2023-01-22T16:02:11.515Z,6.57
2023-01-22T16:04:38.590Z,5.27
2023-01-22T16:07:05.830Z,7.00
2023-01-22T16:09:32.955Z,6.30
2023-01-22T16:12:00.100Z,9.10
2023-01-22T16:14:29.022Z,7.70
2023-01-22T16:16:56.264Z,6.10
2023-01-22T16:19:23.451Z,8.57
2023-01-22T16:21:52.277Z,6.00
2023-01-22T16:24:19.351Z,6.27
2023-01-22T16:26:46.477Z,6.63
2023-01-22T16:29:13.571Z,7.10
2023-01-22T16:31:40.752Z,6.27
2023-01-22T16:34:12.073Z,5.10
2023-01-22T16:36:39.631Z,5.27
2023-01-22T16:39:07.020Z,5.43
2023-01-22T16:41:34.933Z,5.50
2023-01-22T16:44:02.101Z,5.13
2023-01-22T16:46:30.665Z,6.40
2023-01-22T16:49:08.201Z,6.17
2023-01-22T16:51:39.207Z,7.63
2023-01-22T16:54:07.459Z,8.17
2023-01-22T16:56:35.336Z,8.13
2023-01-22T16:59:02.533Z,7.17
2023-01-22T17:01:30.463Z,7.07
2023-01-22T17:03:57.621Z,7.93
2023-01-22T17:06:30.772Z,8.17
2023-01-22T17:08:58.336Z,6.73
2023-01-22T17:11:25.444Z,6.60
2023-01-22T17:13:52.508Z,6.53
2023-01-22T17:16:20.052Z,8.43
2023-01-22T17:18:47.232Z,8.57
2023-01-22T17:21:16.054Z,7.57
2023-01-22T17:23:43.487Z,10.23
2023-01-22T17:26:11.671Z,7.07
2023-01-22T17:28:39.581Z,7.67
2023-01-22T17:31:10.652Z,7.97
2023-01-22T17:33:38.177Z,8.10
2023-01-22T17:36:06.557Z,7.23
2023-01-22T17:38:38.331Z,5.73
2023-01-22T17:41:09.907Z,7.87
2023-01-22T17:43:38.545Z,7.83
2023-01-22T17:46:10.104Z,7.50
2023-01-22T17:48:37.716Z,8.07
2023-01-22T17:51:09.390Z,8.23
2023-01-22T17:53:38.592Z,6.90
2023-01-22T17:56:07.077Z,7.30
2023-01-22T17:58:34.186Z,7.27
2023-01-22T18:01:05.874Z,8.73
2023-01-22T18:03:33.216Z,9.60
2023-01-22T18:06:00.380Z,8.23
2023-01-22T18:08:28.739Z,7.37
2023-01-22T18:10:56.138Z,7.67
2023-01-22T18:13:23.196Z,7.80
2023-01-22T18:15:50.611Z,7.97
2023-01-22T18:18:18.066Z,8.43
2023-01-22T18:20:45.957Z,9.07
2023-01-22T18:23:13.638Z,7.40
2023-01-22T18:25:49.855Z,7.70
2023-01-22T18:28:17.886Z,11.13
2023-01-22T18:30:45.810Z,13.13
2023-01-22T18:33:14.860Z,10.53
2023-01-22T18:35:42.809Z,9.57
2023-01-22T18:38:10.060Z,8.20
2023-01-22T18:40:37.526Z,11.60
2023-01-22T18:43:09.941Z,9.67
2023-01-22T18:45:37.453Z,9.57
2023-01-22T18:48:04.743Z,9.47
2023-01-22T18:50:31.817Z,33.30
2023-01-22T18:53:01.939Z,18.33
2023-01-22T18:55:31.220Z,12.30
2023-01-22T18:58:05.642Z,13.37
2023-01-22T19:00:33.081Z,11.37
2023-01-22T19:03:00.369Z,15.17
2023-01-22T19:05:28.135Z,20.20
2023-01-22T19:07:55.293Z,16.00
2023-01-22T19:10:23.139Z,19.13
2023-01-22T19:12:50.280Z,14.23
2023-01-22T19:15:17.694Z,13.90
2023-01-22T19:17:44.947Z,13.63
2023-01-22T19:20:14.844Z,14.67
2023-01-22T19:22:42.310Z,11.43
2023-01-22T19:25:09.686Z,12.10
2023-01-22T19:27:36.980Z,15.10
2023-01-22T19:30:04.593Z,12.67
2023-01-22T19:32:35.051Z,13.57
2023-01-22T19:35:02.325Z,14.53
2023-01-22T19:37:29.679Z,17.17
2023-01-22T19:39:57.338Z,12.97
2023-01-22T19:42:24.408Z,13.47
2023-01-22T19:44:52.176Z,12.50
2023-01-22T19:47:20.472Z,13.37
2023-01-22T19:49:47.598Z,13.37
2023-01-22T19:52:14.707Z,10.00
2023-01-22T19:54:47.271Z,11.60
2023-01-22T19:57:15.048Z,11.53
2023-01-22T19:59:42.658Z,10.37
2023-01-22T20:02:14.003Z,9.23
2023-01-22T20:04:41.504Z,11.17
2023-01-22T20:07:08.639Z,11.87
2023-01-22T20:09:36.471Z,13.27
2023-01-22T20:12:05.332Z,11.53
2023-01-22T20:14:34.733Z,10.70
2023-01-22T20:17:02.815Z,13.57
2023-01-22T20:19:30.329Z,16.10
2023-01-22T20:21:57.866Z,13.03
2023-01-22T20:24:24.949Z,15.67
2023-01-22T20:26:54.899Z,16.83
2023-01-22T20:29:22.334Z,11.67
2023-01-22T20:31:51.761Z,13.33
2023-01-22T20:34:19.028Z,11.47
2023-01-22T20:36:46.084Z,12.77
2023-01-22T20:39:13.427Z,10.37
2023-01-22T20:41:40.509Z,10.17
2023-01-22T20:44:08.991Z,7.57
2023-01-22T20:46:37.482Z,8.67
2023-01-22T20:49:04.597Z,7.43
2023-01-22T20:51:31.750Z,5.57
2023-01-22T20:53:58.860Z,7.27
2023-01-22T20:56:28.754Z,7.47
2023-01-22T20:58:57.348Z,7.60
2023-01-22T21:01:24.549Z,7.77
2023-01-22T21:03:52.113Z,7.97
2023-01-22T21:06:20.073Z,7.37
2023-01-22T21:08:52.067Z,9.40
2023-01-22T21:11:20.316Z,7.77
2023-01-22T21:13:47.900Z,7.73
2023-01-22T21:16:17.101Z,8.23
2023-01-22T21:18:46.001Z,6.50
2023-01-22T21:21:14.582Z,7.30
2023-01-22T21:23:41.753Z,7.70
2023-01-22T21:26:10.010Z,7.43
2023-01-22T21:28:39.503Z,7.63
2023-01-22T21:31:11.045Z,7.00
2023-01-22T21:33:38.686Z,6.90
2023-01-22T21:36:07.195Z,8.87
2023-01-22T21:38:34.601Z,7.67
2023-01-22T21:41:09.427Z,9.37
2023-01-22T21:43:55.831Z,8.77
2023-01-22T21:46:24.973Z,7.67
2023-01-22T21:48:58.205Z,7.13
2023-01-22T21:51:26.237Z,7.80
2023-01-22T21:53:57.356Z,8.00
2023-01-22T21:56:24.855Z,7.17
2023-01-22T21:58:51.942Z,7.30
2023-01-22T22:01:21.069Z,8.37
2023-01-22T22:03:48.219Z,9.50
2023-01-22T22:06:15.428Z,9.93
2023-01-22T22:08:46.050Z,8.60
2023-01-22T22:11:14.148Z,9.57
2023-01-22T22:13:41.436Z,10.93
2023-01-22T22:16:09.146Z,10.43
2023-01-22T22:18:36.257Z,7.70
2023-01-22T22:21:04.720Z,10.13
2023-01-22T22:23:32.225Z,10.53
2023-01-22T22:25:59.389Z,9.17
2023-01-22T22:28:26.467Z,9.27
2023-01-22T22:30:53.782Z,8.80
2023-01-22T22:33:20.947Z,9.97
2023-01-22T22:35:48.183Z,8.57
2023-01-22T22:38:15.422Z,11.67
2023-01-22T22:40:42.526Z,9.47
2023-01-22T22:43:09.618Z,10.93
2023-01-22T22:45:38.029Z,9.93
2023-01-22T22:48:06.079Z,9.83
2023-01-22T22:50:33.201Z,8.87
2023-01-22T22:53:00.344Z,8.93
2023-01-22T22:55:28.651Z,10.90
2023-01-22T22:57:55.707Z,10.27
2023-01-22T23:00:22.945Z,11.83
2023-01-22T23:02:50.466Z,12.87
2023-01-22T23:05:17.555Z,12.17
2023-01-22T23:07:44.602Z,12.10
2023-01-22T23:10:28.563Z,11.93
2023-01-22T23:12:59.883Z,11.33
2023-01-22T23:15:27.509Z,11.27
2023-01-22T23:17:55.219Z,14.53
2023-01-22T23:20:22.665Z,15.43
2023-01-22T23:22:51.043Z,15.10
2023-01-22T23:25:18.155Z,11.33
2023-01-22T23:27:45.542Z,14.73
2023-01-22T23:30:13.403Z,14.50
2023-01-22T23:32:40.555Z,12.70
2023-01-22T23:35:07.906Z,14.20
2023-01-22T23:37:35.017Z,15.67
2023-01-22T23:40:02.143Z,13.90
2023-01-22T23:42:29.244Z,14.40
2023-01-22T23:44:56.373Z,14.03
2023-01-22T23:47:26.889Z,13.67
2023-01-22T23:49:54.138Z,13.80
2023-01-22T23:52:21.312Z,13.50
2023-01-22T23:54:48.440Z,14.30
2023-01-22T23:57:15.517Z,12.90
2023-01-22T23:59:42.681Z,15.57
